Time;durP1;ratioP1;P1;durP2;ratioP2;P2;SDS_P1;SDS_P2;PMS_P1;PMS_P2;Temp;Humidity;BMP_temperature;BMP_pressure;BME280_temperature;BME280_humidity;BME280_pressure;Samples;Min_cycle;Max_cycle;Signal;HPM_P1;HPM_P2
2023/04/24 00:00:09;;;;;;;2.97;2.72;;;;;;;;;;4934222;29;20621;-62
2023/04/24 00:02:38;;;;;;;2.45;1.95;;;;;;;;;;4916608;29;20234;-62
2023/04/24 00:05:08;;;;;;;4.30;2.88;;;;;;;;;;4933580;29;20223;-62
2023/04/24 00:07:37;;;;;;;3.10;2.80;;;;;;;;;;4934978;29;20192;-62
2023/04/24 00:10:05;;;;;;;3.30;2.65;;;;;;;;;;4934292;29;20213;-62
2023/04/24 00:12:34;;;;;;;3.15;2.60;;;;;;;;;;4933940;29;20204;-63
2023/04/24 00:15:02;;;;;;;3.30;3.00;;;;;;;;;;4934209;29;20216;-63
2023/04/24 00:17:30;;;;;;;2.60;2.40;;;;;;;;;;4917298;29;20267;-62
2023/04/24 00:19:59;;;;;;;2.60;2.40;;;;;;;;;;4934010;29;20648;-61
2023/04/24 00:22:29;;;;;;;2.55;2.10;;;;;;;;;;4933680;29;20700;-62
2023/04/24 00:24:57;;;;;;;6.38;2.10;;;;;;;;;;4934218;29;20193;-61
2023/04/24 00:27:26;;;;;;;4.05;2.85;;;;;;;;;;4926839;29;20661;-62
2023/04/24 00:29:54;;;;;;;4.10;2.25;;;;;;;;;;4914783;29;20224;-62
2023/04/24 00:32:22;;;;;;;1.83;1.73;;;;;;;;;;4898282;29;20213;-61
2023/04/24 00:34:50;;;;;;;2.78;2.28;;;;;;;;;;4917919;29;20213;-64
2023/04/24 00:37:19;;;;;;;5.32;2.50;;;;;;;;;;4934291;29;20204;-61
2023/04/24 00:39:49;;;;;;;4.55;2.78;;;;;;;;;;4933660;29;20235;-61
2023/04/24 00:42:17;;;;;;;3.25;2.20;;;;;;;;;;4933832;29;20234;-62
2023/04/24 00:44:45;;;;;;;2.05;1.85;;;;;;;;;;4933109;29;20205;-62
2023/04/24 00:47:14;;;;;;;2.47;1.90;;;;;;;;;;4932914;29;20663;-62
2023/04/24 00:49:42;;;;;;;1.90;1.80;;;;;;;;;;4914037;29;20215;-63
2023/04/24 00:52:17;;;;;;;2.92;2.63;;;;;;;;;;4932885;29;20211;-62
2023/04/24 00:54:45;;;;;;;3.08;2.20;;;;;;;;;;4916751;29;20199;-62
2023/04/24 00:57:15;;;;;;;1.95;1.85;;;;;;;;;;4915994;29;20264;-62
2023/04/24 00:59:44;;;;;;;2.65;2.45;;;;;;;;;;4914395;29;20205;-62
2023/04/24 01:02:13;;;;;;;2.70;2.28;;;;;;;;;;4913796;29;20213;-64
2023/04/24 01:04:41;;;;;;;2.15;2.05;;;;;;;;;;4914097;29;20584;-64
2023/04/24 01:07:11;;;;;;;6.43;2.28;;;;;;;;;;4914318;29;20571;-64
2023/04/24 01:09:41;;;;;;;3.90;2.28;;;;;;;;;;4898226;29;20819;-65
2023/04/24 01:12:09;;;;;;;2.80;2.15;;;;;;;;;;4914378;29;20213;-65
2023/04/24 01:14:40;;;;;;;2.47;2.28;;;;;;;;;;4913470;29;20562;-65
2023/04/24 01:17:10;;;;;;;2.92;2.15;;;;;;;;;;4914115;29;20193;-64
2023/04/24 01:19:39;;;;;;;2.83;1.85;;;;;;;;;;4917103;29;20224;-65
2023/04/24 01:22:12;;;;;;;2.15;1.95;;;;;;;;;;4933095;29;20201;-65
2023/04/24 01:24:40;;;;;;;3.63;2.25;;;;;;;;;;4933403;29;20209;-65
2023/04/24 01:27:09;;;;;;;2.33;2.17;;;;;;;;;;4936127;29;20209;-64
2023/04/24 01:29:37;;;;;;;3.50;2.08;;;;;;;;;;4936763;29;20205;-65
2023/04/24 01:32:06;;;;;;;3.65;2.28;;;;;;;;;;4936561;29;20255;-64
2023/04/24 01:34:35;;;;;;;3.53;2.20;;;;;;;;;;4936612;29;20652;-62
2023/04/24 01:37:04;;;;;;;2.13;1.80;;;;;;;;;;4925491;29;20219;-64
2023/04/24 01:39:34;;;;;;;2.05;1.95;;;;;;;;;;4918978;29;20228;-64
2023/04/24 01:42:03;;;;;;;3.40;2.10;;;;;;;;;;4936329;29;20209;-64
2023/04/24 01:44:32;;;;;;;2.05;1.70;;;;;;;;;;4920663;29;20221;-65
2023/04/24 01:47:01;;;;;;;3.38;2.00;;;;;;;;;;4936814;29;20652;-65
2023/04/24 01:49:30;;;;;;;2.83;1.90;;;;;;;;;;4919172;29;20211;-64
2023/04/24 01:51:58;;;;;;;2.10;1.90;;;;;;;;;;4936701;29;20208;-64
2023/04/24 01:54:27;;;;;;;2.15;1.98;;;;;;;;;;4936365;29;20232;-64
2023/04/24 01:56:56;;;;;;;3.20;2.00;;;;;;;;;;4936388;29;20201;-65
2023/04/24 01:59:25;;;;;;;1.85;1.70;;;;;;;;;;4935736;29;20200;-64
2023/04/24 02:01:53;;;;;;;2.08;1.90;;;;;;;;;;4935412;29;20205;-64
2023/04/24 02:04:21;;;;;;;1.80;1.70;;;;;;;;;;4918544;29;20225;-64
2023/04/24 02:06:49;;;;;;;1.83;1.73;;;;;;;;;;4936257;29;20211;-64
2023/04/24 02:09:17;;;;;;;2.00;1.90;;;;;;;;;;4936485;29;20208;-64
2023/04/24 02:11:46;;;;;;;4.20;2.08;;;;;;;;;;4918742;29;20212;-64
2023/04/24 02:14:15;;;;;;;1.88;1.67;;;;;;;;;;4936533;29;20195;-64
2023/04/24 02:16:43;;;;;;;2.30;1.80;;;;;;;;;;4936200;29;20581;-64
2023/04/24 02:19:12;;;;;;;4.30;1.90;;;;;;;;;;4935292;29;20664;-64
2023/04/24 02:21:40;;;;;;;1.95;1.80;;;;;;;;;;4935524;29;20283;-64
2023/04/24 02:24:10;;;;;;;2.35;2.17;;;;;;;;;;4935627;29;20200;-65
2023/04/24 02:26:38;;;;;;;2.00;1.90;;;;;;;;;;4935880;29;20208;-65
2023/04/24 02:29:06;;;;;;;2.22;2.03;;;;;;;;;;4918718;29;20563;-65
2023/04/24 02:31:36;;;;;;;2.90;1.73;;;;;;;;;;4935742;29;20251;-65
2023/04/24 02:34:04;;;;;;;6.47;2.00;;;;;;;;;;4935808;29;20200;-65
2023/04/24 02:36:33;;;;;;;2.20;1.83;;;;;;;;;;4934515;29;20205;-65
2023/04/24 02:39:01;;;;;;;4.90;2.40;;;;;;;;;;4935317;29;20208;-65
2023/04/24 02:41:31;;;;;;;5.13;2.40;;;;;;;;;;4927465;29;20216;-63
2023/04/24 02:44:00;;;;;;;2.45;2.30;;;;;;;;;;4916556;29;20235;-65
2023/04/24 02:46:28;;;;;;;8.27;3.08;;;;;;;;;;4916901;29;20557;-64
2023/04/24 02:53:00;;;;;;;4.00;3.08;;;;;;;;;;4892795;29;20708;-63
2023/04/24 02:55:28;;;;;;;3.92;3.60;;;;;;;;;;4896582;29;20212;-64
2023/04/24 02:57:56;;;;;;;3.83;3.30;;;;;;;;;;4918620;29;20215;-64
2023/04/24 03:00:25;;;;;;;6.20;3.90;;;;;;;;;;4932532;29;20205;-64
2023/04/24 03:02:53;;;;;;;3.67;3.38;;;;;;;;;;4915577;29;20215;-64
2023/04/24 03:05:21;;;;;;;3.95;3.47;;;;;;;;;;4915520;29;20224;-64
2023/04/24 03:07:49;;;;;;;4.25;3.95;;;;;;;;;;4917682;29;20205;-64
2023/04/24 03:10:19;;;;;;;9.60;4.38;;;;;;;;;;4934837;29;20212;-64
2023/04/24 03:12:47;;;;;;;3.90;3.60;;;;;;;;;;4935221;29;20675;-64
2023/04/24 03:15:15;;;;;;;7.60;4.22;;;;;;;;;;4926796;29;20212;-64
2023/04/24 03:17:44;;;;;;;3.35;3.15;;;;;;;;;;4899396;29;20226;-64
2023/04/24 03:20:12;;;;;;;3.45;3.25;;;;;;;;;;4915642;29;20233;-64
2023/04/24 03:22:40;;;;;;;4.88;4.47;;;;;;;;;;4899238;29;20205;-64
2023/04/24 03:25:10;;;;;;;3.70;3.40;;;;;;;;;;4915544;29;20225;-64
2023/04/24 03:27:40;;;;;;;3.45;3.25;;;;;;;;;;4907966;29;20205;-64
2023/04/24 03:30:37;;;;;;;3.17;2.90;;;;;;;;;;4920764;29;20209;-64
2023/04/24 03:33:09;;;;;;;4.32;4.03;;;;;;;;;;4917591;29;20215;-64
2023/04/24 03:35:41;;;;;;;5.03;3.50;;;;;;;;;;4917370;29;20194;-64
2023/04/24 03:38:12;;;;;;;4.10;3.80;;;;;;;;;;4917905;29;20218;-64
2023/04/24 03:40:55;;;;;;;4.10;3.80;;;;;;;;;;4916922;29;20236;-64
2023/04/24 03:43:44;;;;;;;3.25;3.15;;;;;;;;;;4917226;29;20719;-64
2023/04/24 03:46:12;;;;;;;4.05;3.75;;;;;;;;;;4917498;29;20211;-64
2023/04/24 03:48:45;;;;;;;10.45;3.45;;;;;;;;;;4916263;29;20197;-63
2023/04/24 03:51:14;;;;;;;3.60;3.40;;;;;;;;;;4917087;29;20582;-63
2023/04/24 03:53:46;;;;;;;7.20;4.05;;;;;;;;;;4916884;29;20255;-63
2023/04/24 03:56:18;;;;;;;2.90;2.65;;;;;;;;;;4916883;29;20201;-63
2023/04/24 03:58:47;;;;;;;3.67;2.55;;;;;;;;;;4933830;29;20608;-63
2023/04/24 04:01:15;;;;;;;3.45;2.70;;;;;;;;;;4916852;29;20209;-63
2023/04/24 04:03:56;;;;;;;3.67;2.90;;;;;;;;;;4898566;29;20213;-63
2023/04/24 04:06:26;;;;;;;2.70;2.50;;;;;;;;;;4898195;29;20208;-63
2023/04/24 04:08:56;;;;;;;3.03;2.80;;;;;;;;;;4897844;29;20215;-63
2023/04/24 04:11:25;;;;;;;2.80;2.60;;;;;;;;;;4898755;29;20236;-64
2023/04/24 04:13:55;;;;;;;2.67;2.58;;;;;;;;;;4925375;29;20204;-64
2023/04/24 04:16:24;;;;;;;3.00;2.80;;;;;;;;;;4934490;29;20205;-64
2023/04/24 04:18:56;;;;;;;3.22;3.03;;;;;;;;;;4913495;29;20193;-64
2023/04/24 04:21:24;;;;;;;8.30;3.90;;;;;;;;;;4897644;29;20716;-63
2023/04/24 04:23:58;;;;;;;4.65;4.35;;;;;;;;;;4897843;29;20205;-64
2023/04/24 04:26:33;;;;;;;3.78;3.25;;;;;;;;;;4916202;29;20557;-64
2023/04/24 04:29:06;;;;;;;3.30;3.10;;;;;;;;;;4916838;29;20569;-64
2023/04/24 04:31:37;;;;;;;6.00;4.30;;;;;;;;;;4916860;29;20277;-64
2023/04/24 04:34:11;;;;;;;6.28;4.60;;;;;;;;;;4898290;29;20194;-63
2023/04/24 04:36:40;;;;;;;4.97;4.25;;;;;;;;;;4913562;29;20209;-64
2023/04/24 04:39:31;;;;;;;4.80;4.15;;;;;;;;;;4879172;29;20249;-64
2023/04/24 04:42:06;;;;;;;4.22;3.92;;;;;;;;;;4913455;29;20197;-64
2023/04/24 04:44:42;;;;;;;4.88;3.65;;;;;;;;;;4921151;29;20218;-64
2023/04/24 04:47:16;;;;;;;6.47;4.50;;;;;;;;;;4916599;29;20589;-64
2023/04/24 04:49:44;;;;;;;4.63;4.22;;;;;;;;;;4914316;29;20678;-64
2023/04/24 04:52:26;;;;;;;4.80;4.43;;;;;;;;;;4916557;29;20235;-64
2023/04/24 04:55:01;;;;;;;5.32;4.80;;;;;;;;;;4905353;29;20297;-64
2023/04/24 04:57:45;;;;;;;4.75;4.35;;;;;;;;;;4916545;29;20196;-64
2023/04/24 05:00:15;;;;;;;4.80;4.50;;;;;;;;;;4934835;29;20215;-64
2023/04/24 05:02:50;;;;;;;6.75;4.75;;;;;;;;;;4919541;29;20208;-64
2023/04/24 05:05:19;;;;;;;5.95;4.65;;;;;;;;;;4920163;29;20239;-64
2023/04/24 05:07:47;;;;;;;5.47;4.97;;;;;;;;;;4920569;29;20267;-64
2023/04/24 05:10:15;;;;;;;4.57;4.18;;;;;;;;;;4902890;29;20220;-64
2023/04/24 05:12:44;;;;;;;5.05;4.55;;;;;;;;;;4935982;29;20577;-64
2023/04/24 05:15:14;;;;;;;5.65;4.55;;;;;;;;;;4919094;29;20248;-64
2023/04/24 05:17:42;;;;;;;5.20;4.78;;;;;;;;;;4919047;29;20215;-64
2023/04/24 05:20:12;;;;;;;5.43;4.95;;;;;;;;;;4919781;29;20235;-64
2023/04/24 05:22:40;;;;;;;5.38;4.97;;;;;;;;;;4920063;29;20204;-64
2023/04/24 05:25:09;;;;;;;5.40;4.90;;;;;;;;;;4920323;29;20232;-64
2023/04/24 05:27:42;;;;;;;4.68;4.38;;;;;;;;;;4903198;29;20197;-63
2023/04/24 05:30:17;;;;;;;5.70;4.95;;;;;;;;;;4920467;29;20259;-64
2023/04/24 05:32:46;;;;;;;7.00;4.85;;;;;;;;;;4936642;29;20213;-66
2023/04/24 05:35:15;;;;;;;6.55;4.57;;;;;;;;;;4936075;29;20259;-64
2023/04/24 05:37:43;;;;;;;5.50;4.55;;;;;;;;;;4919565;29;20196;-63
2023/04/24 05:40:12;;;;;;;6.57;4.50;;;;;;;;;;4919194;29;20766;-66
2023/04/24 05:42:41;;;;;;;4.65;4.25;;;;;;;;;;4930378;29;20971;-63
2023/04/24 05:45:14;;;;;;;4.10;3.90;;;;;;;;;;4934908;29;20703;-66
2023/04/24 05:47:45;;;;;;;4.53;4.22;;;;;;;;;;4902416;29;20250;-66
2023/04/24 05:50:13;;;;;;;3.80;3.50;;;;;;;;;;4936377;29;20267;-65
2023/04/24 05:52:42;;;;;;;4.18;3.88;;;;;;;;;;4903692;29;20218;-65
2023/04/24 05:55:24;;;;;;;3.90;3.70;;;;;;;;;;4919179;29;20192;-66
2023/04/24 05:57:53;;;;;;;4.43;4.13;;;;;;;;;;4919354;29;20208;-65
2023/04/24 06:00:21;;;;;;;4.50;4.10;;;;;;;;;;4919688;29;20208;-67
2023/04/24 06:03:03;;;;;;;4.53;4.13;;;;;;;;;;4918465;29;20216;-64
2023/04/24 06:05:32;;;;;;;4.93;4.43;;;;;;;;;;4918255;29;20227;-64
2023/04/24 06:08:00;;;;;;;4.60;4.30;;;;;;;;;;4936021;29;20223;-64
2023/04/24 06:10:33;;;;;;;3.83;3.55;;;;;;;;;;4918100;29;20223;-64
2023/04/24 06:13:02;;;;;;;3.97;3.60;;;;;;;;;;4919399;29;20648;-64
2023/04/24 06:15:32;;;;;;;4.20;3.90;;;;;;;;;;4919694;29;20584;-64
2023/04/24 06:18:09;;;;;;;4.70;4.30;;;;;;;;;;4918687;29;20603;-66
2023/04/24 06:20:38;;;;;;;4.53;3.75;;;;;;;;;;4918415;29;20224;-65
2023/04/24 06:23:06;;;;;;;4.05;3.75;;;;;;;;;;4935431;29;20205;-64
2023/04/24 06:25:35;;;;;;;4.63;4.07;;;;;;;;;;4918506;29;20227;-64
2023/04/24 06:28:03;;;;;;;4.10;3.80;;;;;;;;;;4918187;29;20197;-64
2023/04/24 06:30:32;;;;;;;4.70;4.40;;;;;;;;;;4918318;29;20193;-65
2023/04/24 06:33:00;;;;;;;4.32;3.92;;;;;;;;;;4918333;29;20213;-64
2023/04/24 06:35:30;;;;;;;3.78;3.47;;;;;;;;;;4935106;29;20239;-65
2023/04/24 06:37:58;;;;;;;3.50;3.20;;;;;;;;;;4934862;29;20200;-64
2023/04/24 06:40:26;;;;;;;4.45;3.45;;;;;;;;;;4927990;29;20239;-64
2023/04/24 06:42:57;;;;;;;3.38;3.08;;;;;;;;;;4934419;29;20209;-64
2023/04/24 06:45:25;;;;;;;3.53;3.05;;;;;;;;;;4935379;29;20240;-64
2023/04/24 06:47:54;;;;;;;3.53;3.00;;;;;;;;;;4934654;29;20232;-64
2023/04/24 06:50:22;;;;;;;2.85;2.65;;;;;;;;;;4933293;29;20216;-65
2023/04/24 06:52:52;;;;;;;2.75;2.55;;;;;;;;;;4935285;29;20208;-64
2023/04/24 06:55:20;;;;;;;3.17;2.20;;;;;;;;;;4935061;29;20201;-65
2023/04/24 06:57:48;;;;;;;2.30;2.20;;;;;;;;;;4934071;29;20207;-65
2023/04/24 07:00:16;;;;;;;2.28;1.73;;;;;;;;;;4933534;29;20488;-67
2023/04/24 07:02:45;;;;;;;3.15;1.80;;;;;;;;;;4916184;29;20196;-66
2023/04/24 07:05:15;;;;;;;2.38;1.98;;;;;;;;;;4934190;29;20211;-64
2023/04/24 07:07:44;;;;;;;2.00;1.77;;;;;;;;;;4934777;29;20219;-65
2023/04/24 07:10:14;;;;;;;2.08;1.98;;;;;;;;;;4934168;29;20259;-66
2023/04/24 07:12:42;;;;;;;1.90;1.80;;;;;;;;;;4933851;29;20664;-65
2023/04/24 07:15:11;;;;;;;3.08;2.80;;;;;;;;;;4934262;29;20205;-65
2023/04/24 07:17:43;;;;;;;2.03;1.92;;;;;;;;;;4934764;29;20204;-66
2023/04/24 07:20:11;;;;;;;2.20;2.03;;;;;;;;;;4933637;29;20228;-65
2023/04/24 07:22:40;;;;;;;2.08;1.98;;;;;;;;;;4933641;29;20204;-65
2023/04/24 07:25:09;;;;;;;2.97;2.67;;;;;;;;;;4933513;29;20267;-66
2023/04/24 07:27:38;;;;;;;2.75;2.30;;;;;;;;;;4934605;29;20204;-66
2023/04/24 07:30:07;;;;;;;2.58;2.35;;;;;;;;;;4915628;29;20595;-65
2023/04/24 07:32:36;;;;;;;3.15;1.98;;;;;;;;;;4924021;29;20670;-66
2023/04/24 07:35:04;;;;;;;2.58;2.38;;;;;;;;;;4935162;29;20215;-67
2023/04/24 07:37:32;;;;;;;2.60;2.50;;;;;;;;;;4916931;29;20201;-65
2023/04/24 07:40:01;;;;;;;2.85;2.00;;;;;;;;;;4934298;29;20243;-65
2023/04/24 07:42:30;;;;;;;2.30;2.20;;;;;;;;;;4934157;29;20201;-67
2023/04/24 07:45:00;;;;;;;2.90;2.08;;;;;;;;;;4934249;29;20197;-67
2023/04/24 07:47:28;;;;;;;1.95;1.80;;;;;;;;;;4933770;29;20225;-66
2023/04/24 07:49:57;;;;;;;2.00;1.90;;;;;;;;;;4934840;29;20369;-66
2023/04/24 07:52:25;;;;;;;2.15;2.05;;;;;;;;;;4934649;29;20211;-65
2023/04/24 07:54:58;;;;;;;1.92;1.83;;;;;;;;;;4935068;29;20230;-66
2023/04/24 07:57:26;;;;;;;1.85;1.75;;;;;;;;;;4934835;29;20208;-65
2023/04/24 07:59:54;;;;;;;1.95;1.85;;;;;;;;;;4934486;29;20219;-66
2023/04/24 08:02:26;;;;;;;2.03;1.60;;;;;;;;;;4932811;29;20212;-65
2023/04/24 08:04:54;;;;;;;4.40;2.03;;;;;;;;;;4933046;29;20231;-65
2023/04/24 08:07:23;;;;;;;1.83;1.73;;;;;;;;;;4933559;29;20227;-66
2023/04/24 08:09:51;;;;;;;1.80;1.70;;;;;;;;;;4933290;29;20209;-65
2023/04/24 08:12:19;;;;;;;2.47;2.28;;;;;;;;;;4934311;29;20687;-65
2023/04/24 08:14:47;;;;;;;2.05;1.95;;;;;;;;;;4917631;29;20275;-66
2023/04/24 08:17:15;;;;;;;1.95;1.85;;;;;;;;;;4933235;29;20196;-66
2023/04/24 08:19:48;;;;;;;2.40;2.30;;;;;;;;;;4934012;29;20235;-66
2023/04/24 08:22:16;;;;;;;2.65;2.55;;;;;;;;;;4932588;29;20189;-66
2023/04/24 08:24:44;;;;;;;2.58;2.38;;;;;;;;;;4932207;29;20684;-66
2023/04/24 08:27:13;;;;;;;3.15;3.05;;;;;;;;;;4920287;29;20586;-66
2023/04/24 08:29:41;;;;;;;2.70;2.60;;;;;;;;;;4933420;29;20211;-67
2023/04/24 08:32:09;;;;;;;3.33;3.20;;;;;;;;;;4932191;29;20205;-65
2023/04/24 08:34:37;;;;;;;4.13;3.00;;;;;;;;;;4932001;29;20582;-65
2023/04/24 08:37:07;;;;;;;2.88;2.78;;;;;;;;;;4933636;29;20613;-66
2023/04/24 08:39:35;;;;;;;3.30;3.00;;;;;;;;;;4933508;29;20282;-65
2023/04/24 08:42:07;;;;;;;3.28;2.97;;;;;;;;;;4933309;29;20201;-66
2023/04/24 08:44:37;;;;;;;3.23;3.03;;;;;;;;;;4933172;29;20197;-66
2023/04/24 08:47:06;;;;;;;3.33;3.23;;;;;;;;;;4932434;29;20638;-66
2023/04/24 08:49:35;;;;;;;4.20;3.80;;;;;;;;;;4932183;29;20737;-67
2023/04/24 08:52:03;;;;;;;3.50;3.40;;;;;;;;;;4927962;29;20200;-66
2023/04/24 08:54:33;;;;;;;3.90;3.70;;;;;;;;;;4932638;29;20578;-65
2023/04/24 08:57:03;;;;;;;3.25;3.15;;;;;;;;;;4932679;29;20284;-65
2023/04/24 08:59:31;;;;;;;2.78;2.58;;;;;;;;;;4932074;29;20207;-65
2023/04/24 09:02:00;;;;;;;3.10;2.90;;;;;;;;;;4931993;29;20226;-65
2023/04/24 09:04:30;;;;;;;4.00;3.70;;;;;;;;;;4931798;29;20204;-65
2023/04/24 09:06:59;;;;;;;3.63;3.42;;;;;;;;;;4931583;29;20220;-65
2023/04/24 09:09:27;;;;;;;3.35;3.15;;;;;;;;;;4928485;29;20215;-66
2023/04/24 09:11:57;;;;;;;3.63;3.33;;;;;;;;;;4924945;29;20216;-65
2023/04/24 09:14:25;;;;;;;3.95;3.75;;;;;;;;;;4930827;29;20200;-65
2023/04/24 09:16:53;;;;;;;4.88;4.20;;;;;;;;;;4931937;29;20660;-65
2023/04/24 09:19:22;;;;;;;4.20;4.00;;;;;;;;;;4932988;29;20552;-68
2023/04/24 09:21:50;;;;;;;4.20;4.00;;;;;;;;;;4916441;29;20546;-65
2023/04/24 09:24:22;;;;;;;4.60;4.30;;;;;;;;;;4933475;29;20217;-65
2023/04/24 09:26:51;;;;;;;6.03;4.78;;;;;;;;;;4932707;29;20208;-65
2023/04/24 09:29:20;;;;;;;4.22;4.03;;;;;;;;;;4933048;29;20213;-66
2023/04/24 09:31:48;;;;;;;3.90;3.70;;;;;;;;;;4933407;29;20212;-65
2023/04/24 09:34:22;;;;;;;6.80;3.80;;;;;;;;;;4931889;29;20651;-65
2023/04/24 09:36:50;;;;;;;3.33;3.10;;;;;;;;;;4932186;29;20608;-65
2023/04/24 09:39:19;;;;;;;3.67;3.47;;;;;;;;;;4932883;29;20209;-65
2023/04/24 09:41:48;;;;;;;4.53;3.72;;;;;;;;;;4933905;29;20608;-64
2023/04/24 09:44:17;;;;;;;4.93;4.63;;;;;;;;;;4933814;29;20272;-65
2023/04/24 09:46:48;;;;;;;4.43;4.03;;;;;;;;;;4934415;29;20664;-64
2023/04/24 09:49:17;;;;;;;5.05;4.65;;;;;;;;;;4937247;29;20589;-63
2023/04/24 09:51:45;;;;;;;5.80;4.30;;;;;;;;;;4936562;29;20652;-64
2023/04/24 09:54:17;;;;;;;4.60;4.30;;;;;;;;;;4937051;29;20673;-64
2023/04/24 09:56:47;;;;;;;4.80;4.60;;;;;;;;;;4936049;29;20586;-66
2023/04/24 09:59:15;;;;;;;5.50;5.00;;;;;;;;;;4935963;29;21001;-65
2023/04/24 10:01:44;;;;;;;5.18;4.88;;;;;;;;;;4918866;29;20686;-65
2023/04/24 10:04:20;;;;;;;4.40;4.10;;;;;;;;;;4934738;29;20215;-65
2023/04/24 10:06:50;;;;;;;5.05;4.75;;;;;;;;;;4935876;29;20703;-64
2023/04/24 10:09:18;;;;;;;5.50;5.00;;;;;;;;;;4935730;29;20227;-64
2023/04/24 10:11:47;;;;;;;5.32;4.82;;;;;;;;;;4936520;29;20200;-63
2023/04/24 10:14:17;;;;;;;4.38;4.05;;;;;;;;;;4935009;29;20592;-64
2023/04/24 10:16:46;;;;;;;6.63;4.43;;;;;;;;;;4935504;29;20204;-65
2023/04/24 10:19:15;;;;;;;4.80;4.40;;;;;;;;;;4936057;29;20208;-64
2023/04/24 10:21:46;;;;;;;3.63;3.42;;;;;;;;;;4936304;29;20586;-63
2023/04/24 10:24:15;;;;;;;5.53;3.88;;;;;;;;;;4919281;29;20193;-64
2023/04/24 10:26:43;;;;;;;3.63;3.42;;;;;;;;;;4936450;29;20878;-64
2023/04/24 10:29:12;;;;;;;6.93;4.20;;;;;;;;;;4934795;29;21506;-64
2023/04/24 10:31:41;;;;;;;4.00;3.70;;;;;;;;;;4936013;29;20201;-63
2023/04/24 10:34:10;;;;;;;4.20;4.00;;;;;;;;;;4935207;29;20208;-65
2023/04/24 10:36:41;;;;;;;3.50;3.30;;;;;;;;;;4936297;29;20209;-64
2023/04/24 10:39:12;;;;;;;4.95;3.95;;;;;;;;;;4934910;29;20253;-64
2023/04/24 10:41:40;;;;;;;4.47;4.18;;;;;;;;;;4935250;29;20225;-63
2023/04/24 10:44:09;;;;;;;4.60;4.15;;;;;;;;;;4935424;29;20219;-64
2023/04/24 10:46:37;;;;;;;4.60;4.35;;;;;;;;;;4935822;29;20209;-64
2023/04/24 10:49:08;;;;;;;5.38;5.07;;;;;;;;;;4935490;29;20231;-64
2023/04/24 10:51:49;;;;;;;5.55;5.15;;;;;;;;;;4935625;29;20574;-64
2023/04/24 10:54:26;;;;;;;4.97;4.57;;;;;;;;;;4935021;29;20203;-64
2023/04/24 10:56:54;;;;;;;4.78;4.30;;;;;;;;;;4935935;29;20203;-65
2023/04/24 10:59:26;;;;;;;4.97;4.57;;;;;;;;;;4933732;29;20201;-65
2023/04/24 11:01:55;;;;;;;4.03;3.60;;;;;;;;;;4935110;29;20263;-66
2023/04/24 11:04:33;;;;;;;4.47;4.20;;;;;;;;;;4934342;29;20209;-66
2023/04/24 11:07:01;;;;;;;4.45;3.75;;;;;;;;;;4934659;29;20193;-64
2023/04/24 11:09:32;;;;;;;5.28;3.97;;;;;;;;;;4933001;29;20209;-65
2023/04/24 11:12:08;;;;;;;4.65;3.60;;;;;;;;;;4931674;29;20192;-65
2023/04/24 11:14:56;;;;;;;3.47;3.28;;;;;;;;;;4933794;29;20209;-65
2023/04/24 11:17:33;;;;;;;4.15;3.85;;;;;;;;;;4935247;29;20203;-66
2023/04/24 11:20:03;;;;;;;3.60;3.38;;;;;;;;;;4934752;29;20220;-65
2023/04/24 11:22:35;;;;;;;4.35;4.05;;;;;;;;;;4930568;29;20631;-65
2023/04/24 11:25:05;;;;;;;6.38;5.80;;;;;;;;;;4934978;29;20204;-64
2023/04/24 11:27:40;;;;;;;4.97;4.68;;;;;;;;;;4933683;29;20219;-65
2023/04/24 11:30:08;;;;;;;5.80;5.60;;;;;;;;;;4931567;29;20656;-63
2023/04/24 11:32:38;;;;;;;7.63;7.05;;;;;;;;;;4933275;29;21053;-65
2023/04/24 11:35:08;;;;;;;5.70;5.40;;;;;;;;;;4916874;29;20207;-64
2023/04/24 11:37:37;;;;;;;6.37;5.97;;;;;;;;;;4932854;29;20203;-65
2023/04/24 11:40:08;;;;;;;6.50;6.20;;;;;;;;;;4933673;29;20668;-65
2023/04/24 11:42:40;;;;;;;7.13;6.50;;;;;;;;;;4932894;29;20583;-65
2023/04/24 11:45:09;;;;;;;6.57;6.27;;;;;;;;;;4933167;29;20647;-65
2023/04/24 11:47:37;;;;;;;6.53;6.03;;;;;;;;;;4933363;29;20651;-65
2023/04/24 11:50:07;;;;;;;11.53;7.13;;;;;;;;;;4932880;29;20632;-64
2023/04/24 11:52:38;;;;;;;7.00;6.53;;;;;;;;;;4923105;29;20636;-65
2023/04/24 11:55:09;;;;;;;9.13;7.10;;;;;;;;;;4933128;29;20708;-65
2023/04/24 11:57:38;;;;;;;7.10;6.80;;;;;;;;;;4925338;29;20969;-65
2023/04/24 12:00:07;;;;;;;7.70;7.00;;;;;;;;;;4932660;29;21330;-65
2023/04/24 12:02:40;;;;;;;6.57;5.97;;;;;;;;;;4931384;29;21160;-65
2023/04/24 12:05:11;;;;;;;6.93;6.43;;;;;;;;;;4928402;29;20672;-66
2023/04/24 12:07:42;;;;;;;6.72;6.32;;;;;;;;;;4932243;29;20216;-66
2023/04/24 12:10:12;;;;;;;6.93;6.43;;;;;;;;;;4934221;29;20197;-66
2023/04/24 12:12:40;;;;;;;7.83;7.33;;;;;;;;;;4933612;29;20602;-65
2023/04/24 12:15:09;;;;;;;7.93;7.03;;;;;;;;;;4934433;29;20636;-65
2023/04/24 12:17:37;;;;;;;7.93;7.43;;;;;;;;;;4932977;29;20628;-64
2023/04/24 12:20:07;;;;;;;7.37;6.93;;;;;;;;;;4932901;29;20635;-64
2023/04/24 12:22:46;;;;;;;8.63;8.00;;;;;;;;;;4933151;29;20992;-64
2023/04/24 12:25:16;;;;;;;8.53;7.83;;;;;;;;;;4931898;29;21030;-65
2023/04/24 12:27:45;;;;;;;8.73;8.17;;;;;;;;;;4932460;29;20614;-65
2023/04/24 12:30:14;;;;;;;8.63;8.07;;;;;;;;;;4934290;29;21236;-65
2023/04/24 12:32:43;;;;;;;9.40;8.80;;;;;;;;;;4932467;29;20619;-66
2023/04/24 12:35:12;;;;;;;9.57;8.97;;;;;;;;;;4933566;29;21206;-66
2023/04/24 12:37:41;;;;;;;8.77;8.37;;;;;;;;;;4932362;29;20646;-64
2023/04/24 12:40:11;;;;;;;9.37;8.73;;;;;;;;;;4932570;29;20639;-65
2023/04/24 12:42:45;;;;;;;10.03;9.50;;;;;;;;;;4932180;29;21191;-63
2023/04/24 12:45:13;;;;;;;9.50;8.90;;;;;;;;;;4933057;29;20978;-63
2023/04/24 12:47:42;;;;;;;9.83;9.13;;;;;;;;;;4932549;29;20611;-64
2023/04/24 12:50:11;;;;;;;8.90;8.50;;;;;;;;;;4933413;29;20625;-64
2023/04/24 12:52:39;;;;;;;10.70;10.00;;;;;;;;;;4932074;29;21001;-64
2023/04/24 12:55:08;;;;;;;9.07;8.67;;;;;;;;;;4932985;29;20706;-64
2023/04/24 12:57:37;;;;;;;10.70;9.90;;;;;;;;;;4933005;29;20637;-64
2023/04/24 13:00:08;;;;;;;20.07;18.17;;;;;;;;;;4933360;29;20620;-65
2023/04/24 13:02:36;;;;;;;9.80;9.10;;;;;;;;;;4927501;29;20750;-66
2023/04/24 13:05:04;;;;;;;14.00;12.90;;;;;;;;;;4932063;29;20731;-66
2023/04/24 13:07:35;;;;;;;12.73;12.03;;;;;;;;;;4916106;29;20636;-66
2023/04/24 13:10:03;;;;;;;13.17;12.43;;;;;;;;;;4933719;29;20675;-66
2023/04/24 13:12:31;;;;;;;12.67;12.07;;;;;;;;;;4932439;29;21265;-66
2023/04/24 13:15:00;;;;;;;13.43;12.33;;;;;;;;;;4933814;29;20637;-65
2023/04/24 13:17:29;;;;;;;12.37;11.50;;;;;;;;;;4932273;29;20655;-65
2023/04/24 13:19:58;;;;;;;11.83;11.23;;;;;;;;;;4914892;29;21032;-65
2023/04/24 13:22:27;;;;;;;14.70;13.90;;;;;;;;;;4935750;29;20632;-65
2023/04/24 13:24:56;;;;;;;13.57;12.87;;;;;;;;;;4938024;29;20624;-66
2023/04/24 13:27:24;;;;;;;11.57;10.87;;;;;;;;;;4934510;29;20719;-66
2023/04/24 13:29:52;;;;;;;12.10;11.37;;;;;;;;;;4946715;29;20685;-65
2023/04/24 13:32:20;;;;;;;10.97;10.37;;;;;;;;;;4938333;29;20658;-66
2023/04/24 13:34:50;;;;;;;12.70;11.83;;;;;;;;;;4940110;29;20632;-66
2023/04/24 13:37:18;;;;;;;11.53;10.80;;;;;;;;;;4942839;29;21181;-67
2023/04/24 13:39:46;;;;;;;11.40;10.67;;;;;;;;;;4950325;29;20659;-67
2023/04/24 13:42:15;;;;;;;10.40;9.90;;;;;;;;;;4923470;29;20605;-67
2023/04/24 13:44:43;;;;;;;9.70;9.30;;;;;;;;;;4933257;29;20636;-67
2023/04/24 13:47:11;;;;;;;9.23;8.83;;;;;;;;;;4938845;29;20651;-67
2023/04/24 13:49:39;;;;;;;9.47;8.97;;;;;;;;;;4943939;29;20729;-65
2023/04/24 13:52:10;;;;;;;11.17;10.57;;;;;;;;;;4951198;29;20603;-66
2023/04/24 13:54:38;;;;;;;10.77;10.27;;;;;;;;;;4919558;29;20982;-65
2023/04/24 13:57:06;;;;;;;11.63;11.10;;;;;;;;;;4942053;29;20605;-66
2023/04/24 13:59:34;;;;;;;10.40;10.00;;;;;;;;;;4935608;29;20632;-66
2023/04/24 14:02:03;;;;;;;11.27;10.60;;;;;;;;;;4935219;29;20635;-67
2023/04/24 14:04:31;;;;;;;11.30;10.70;;;;;;;;;;4934811;29;20632;-66
2023/04/24 14:06:59;;;;;;;11.23;10.70;;;;;;;;;;4936035;29;20625;-66
2023/04/24 14:09:29;;;;;;;12.07;11.40;;;;;;;;;;4937143;29;20671;-66
2023/04/24 14:11:57;;;;;;;11.17;10.50;;;;;;;;;;4937515;29;20621;-65
2023/04/24 14:14:25;;;;;;;11.80;11.20;;;;;;;;;;4935653;29;20621;-64
2023/04/24 14:16:53;;;;;;;11.30;10.50;;;;;;;;;;4934695;29;20628;-64
2023/04/24 14:19:21;;;;;;;11.10;10.40;;;;;;;;;;4934816;29;20644;-65
2023/04/24 14:21:50;;;;;;;10.50;10.00;;;;;;;;;;4934025;29;21020;-66
2023/04/24 14:24:18;;;;;;;10.73;10.23;;;;;;;;;;4936542;29;20949;-66
2023/04/24 14:26:48;;;;;;;10.10;9.70;;;;;;;;;;4935585;29;20607;-66
2023/04/24 14:29:16;;;;;;;11.03;10.53;;;;;;;;;;4936176;29;20668;-66
2023/04/24 14:31:44;;;;;;;11.10;10.60;;;;;;;;;;4935577;29;20607;-67
2023/04/24 14:34:13;;;;;;;10.93;10.43;;;;;;;;;;4919143;29;20674;-66
2023/04/24 14:36:41;;;;;;;11.33;10.63;;;;;;;;;;4918777;29;20599;-66
2023/04/24 14:39:09;;;;;;;11.10;10.17;;;;;;;;;;4936396;29;20609;-66
2023/04/24 14:41:39;;;;;;;11.50;10.83;;;;;;;;;;4933642;29;20676;-65
2023/04/24 14:44:08;;;;;;;11.27;10.53;;;;;;;;;;4936310;29;20604;-67
2023/04/24 14:46:37;;;;;;;11.10;10.50;;;;;;;;;;4935085;29;20969;-66
2023/04/24 14:49:05;;;;;;;11.17;10.73;;;;;;;;;;4918419;29;21220;-65
2023/04/24 14:51:33;;;;;;;11.17;10.57;;;;;;;;;;4936349;29;20635;-65
2023/04/24 14:54:02;;;;;;;12.23;11.17;;;;;;;;;;4937147;29;20962;-67
2023/04/24 14:56:30;;;;;;;11.27;10.67;;;;;;;;;;4919388;29;20620;-65
2023/04/24 14:58:59;;;;;;;11.93;11.33;;;;;;;;;;4919677;29;20640;-66